Time;durP1;ratioP1;P1;durP2;ratioP2;P2;SDS_P1;SDS_P2;PMS_P1;PMS_P2;Temp;Humidity;BMP_temperature;BMP_pressure;BME280_temperature;BME280_humidity;BME280_pressure;Samples;Min_cycle;Max_cycle;Signal;HPM_P1;HPM_P2
2023/04/08 00:01:05;;;;;;;9.50;5.97;;;;;;;10.29;78.65;100729.54;1744406;82;21015;-57
2023/04/08 00:03:36;;;;;;;9.00;5.75;;;;;;;10.29;78.97;100723.21;1744200;81;21486;-58
2023/04/08 00:06:07;;;;;;;14.33;6.58;;;;;;;10.30;79.22;100726.28;1744688;82;21044;-57
2023/04/08 00:08:37;;;;;;;10.72;6.17;;;;;;;10.28;79.31;100725.63;1744575;82;21054;-54
2023/04/08 00:11:07;;;;;;;9.70;5.60;;;;;;;10.28;79.35;100726.98;1744256;82;21083;-55
2023/04/08 00:13:38;;;;;;;8.60;5.30;;;;;;;10.25;79.55;100727.36;1743900;82;21028;-57
2023/04/08 00:16:07;;;;;;;9.68;5.50;;;;;;;10.25;79.68;100730.95;1744269;81;21054;-55
2023/04/08 00:18:37;;;;;;;10.08;5.45;;;;;;;10.25;79.82;100738.32;1744191;82;21122;-56
2023/04/08 00:21:08;;;;;;;9.45;5.60;;;;;;;10.25;80.11;100736.95;1744010;82;21474;-56
2023/04/08 00:23:38;;;;;;;9.63;6.15;;;;;;;10.25;80.28;100739.17;1744206;82;21086;-58
2023/04/08 00:26:08;;;;;;;9.85;6.08;;;;;;;10.23;80.50;100735.77;1744239;82;21079;-57
2023/04/08 00:28:38;;;;;;;10.03;5.92;;;;;;;10.22;80.73;100740.06;1744155;82;21086;-56
2023/04/08 00:31:07;;;;;;;11.03;6.45;;;;;;;10.21;80.75;100731.00;1743819;82;21086;-56
2023/04/08 00:33:38;;;;;;;11.83;6.58;;;;;;;10.21;80.85;100739.21;1728002;81;21043;-55
2023/04/08 00:36:07;;;;;;;11.03;6.70;;;;;;;10.20;80.91;100740.25;1710584;84;21480;-55
2023/04/08 00:38:36;;;;;;;9.25;6.00;;;;;;;10.18;81.04;100747.25;1710556;84;21439;-57
2023/04/08 00:41:04;;;;;;;9.40;5.37;;;;;;;10.18;81.30;100746.40;1710805;84;21035;-55
2023/04/08 00:43:35;;;;;;;7.67;4.60;;;;;;;10.14;81.82;100745.07;1710960;84;21067;-56
2023/04/08 00:46:05;;;;;;;6.85;4.85;;;;;;;10.12;82.53;100745.26;1710765;84;21538;-56
2023/04/08 00:48:35;;;;;;;8.25;5.22;;;;;;;10.10;83.28;100742.37;1710439;84;21024;-56
2023/04/08 00:51:06;;;;;;;6.92;4.97;;;;;;;10.10;83.90;100743.74;1710866;84;21016;-56
2023/04/08 00:53:36;;;;;;;10.63;5.28;;;;;;;10.09;84.33;100743.41;1710611;83;21013;-56
2023/04/08 00:56:05;;;;;;;7.15;4.80;;;;;;;10.08;84.75;100748.55;1710912;84;21004;-55
2023/04/08 00:58:34;;;;;;;8.33;5.12;;;;;;;10.08;85.15;100738.45;1710857;84;21055;-56
2023/04/08 01:01:15;;;;;;;7.55;4.90;;;;;;;10.08;85.41;100745.30;1710480;84;21440;-56
2023/04/08 01:03:59;;;;;;;8.73;5.12;;;;;;;10.08;85.63;100743.08;1710563;84;21044;-56
2023/04/08 01:06:45;;;;;;;10.43;4.80;;;;;;;10.06;85.93;100743.27;1660027;84;21055;-56
2023/04/08 01:09:16;;;;;;;7.40;5.03;;;;;;;10.06;86.21;100743.27;1695141;84;21028;-57
2023/04/08 01:11:49;;;;;;;7.47;5.03;;;;;;;10.05;86.48;100745.67;1710627;84;21024;-56
2023/04/08 01:14:21;;;;;;;7.47;5.10;;;;;;;10.02;86.73;100740.57;1710582;84;20987;-55
2023/04/08 01:16:50;;;;;;;9.28;5.58;;;;;;;10.00;87.14;100741.79;1710642;84;21064;-56
2023/04/08 01:19:33;;;;;;;8.15;5.33;;;;;;;10.01;87.43;100739.38;1710566;84;20999;-55
2023/04/08 01:22:27;;;;;;;8.93;5.33;;;;;;;10.01;87.62;100736.13;1710546;84;21067;-55
2023/04/08 01:25:06;;;;;;;8.60;5.25;;;;;;;10.01;87.85;100733.39;1710679;84;21083;-56
2023/04/08 01:27:36;;;;;;;7.60;4.85;;;;;;;10.00;88.04;100743.16;1710704;84;21439;-57
2023/04/08 01:30:07;;;;;;;8.33;5.15;;;;;;;9.99;88.22;100742.83;1710565;84;21119;-57
2023/04/08 01:32:36;;;;;;;9.65;5.45;;;;;;;9.96;88.45;100744.56;1691030;84;21003;-57
2023/04/08 01:35:06;;;;;;;34.30;6.42;;;;;;;9.93;88.78;100735.36;1756306;81;21494;-57
2023/04/08 01:37:37;;;;;;;9.93;5.50;;;;;;;9.91;89.12;100742.91;1760277;81;21054;-57
2023/04/08 01:40:08;;;;;;;9.18;5.55;;;;;;;9.91;89.53;100741.02;1760161;81;21038;-56
2023/04/08 01:42:38;;;;;;;9.55;5.92;;;;;;;9.92;89.98;100736.39;1760360;81;21465;-55
2023/04/08 01:45:08;;;;;;;8.78;5.55;;;;;;;9.93;90.43;100737.58;1760317;81;21057;-55
2023/04/08 01:47:39;;;;;;;8.83;5.62;;;;;;;9.89;90.75;100737.61;1746800;82;21067;-56
2023/04/08 01:50:08;;;;;;;8.83;5.67;;;;;;;9.88;91.31;100739.16;1760230;81;21073;-55
2023/04/08 01:52:37;;;;;;;8.78;5.70;;;;;;;9.85;91.75;100738.50;1760251;81;21454;-55
2023/04/08 01:55:09;;;;;;;9.93;6.00;;;;;;;9.85;92.32;100733.55;1760417;81;21046;-55
2023/04/08 01:57:38;;;;;;;8.93;6.17;;;;;;;9.85;92.84;100734.39;1760412;81;21418;-55
2023/04/08 02:00:09;;;;;;;11.43;6.40;;;;;;;9.85;93.24;100740.39;1760136;81;21038;-56
2023/04/08 02:02:52;;;;;;;9.55;5.70;;;;;;;9.84;93.71;100731.33;1760418;81;21434;-55
2023/04/08 02:05:22;;;;;;;10.28;6.15;;;;;;;9.85;94.16;100742.61;1746919;82;21051;-56
2023/04/08 02:07:51;;;;;;;10.70;6.42;;;;;;;9.83;94.39;100732.36;1747089;82;21052;-56
2023/04/08 02:10:24;;;;;;;11.22;6.12;;;;;;;9.82;94.65;100736.65;1746807;81;21492;-57
2023/04/08 02:12:55;;;;;;;10.85;6.58;;;;;;;9.80;94.94;100731.87;1747018;82;21504;-56
2023/04/08 02:15:24;;;;;;;11.25;6.60;;;;;;;9.80;95.23;100734.62;1747004;82;21520;-57
2023/04/08 02:17:59;;;;;;;10.15;6.28;;;;;;;9.79;95.55;100732.40;1747103;82;21521;-57
2023/04/08 02:20:40;;;;;;;12.15;6.60;;;;;;;9.80;95.77;100734.62;1760118;81;21065;-57
2023/04/08 02:23:19;;;;;;;11.83;6.50;;;;;;;9.79;95.93;100724.70;1746893;82;21035;-57
2023/04/08 02:25:48;;;;;;;11.15;6.58;;;;;;;9.75;95.98;100717.87;1760621;81;21038;-57
2023/04/08 02:28:17;;;;;;;10.82;6.87;;;;;;;9.71;96.20;100714.66;1747059;82;21002;-56
2023/04/08 02:30:50;;;;;;;10.45;6.60;;;;;;;9.71;96.40;100716.02;1760172;81;21026;-57
2023/04/08 02:33:22;;;;;;;10.90;7.05;;;;;;;9.70;96.52;100717.05;1657809;86;21659;-57
2023/04/08 02:35:57;;;;;;;10.58;6.17;;;;;;;9.71;96.66;100715.17;1662263;86;22026;-57
2023/04/08 02:38:28;;;;;;;10.60;6.62;;;;;;;9.70;96.82;100721.16;1662097;86;21054;-56
2023/04/08 02:40:57;;;;;;;10.43;6.42;;;;;;;9.70;96.90;100722.53;1662126;86;21140;-56
2023/04/08 02:43:33;;;;;;;11.60;6.97;;;;;;;9.70;96.99;100725.78;1662109;86;21129;-56
2023/04/08 02:46:06;;;;;;;12.78;7.08;;;;;;;9.70;97.05;100732.10;1662309;86;21687;-56
2023/04/08 02:48:37;;;;;;;11.22;6.95;;;;;;;9.69;97.01;100744.08;1662327;86;21114;-57
2023/04/08 02:51:07;;;;;;;11.55;6.78;;;;;;;9.67;97.12;100739.83;1689349;82;21071;-56
2023/04/08 02:53:37;;;;;;;11.63;6.97;;;;;;;9.66;97.24;100739.50;1744199;81;21516;-56
2023/04/08 02:56:11;;;;;;;12.23;7.22;;;;;;;9.63;97.31;100735.24;1744167;82;21055;-56
2023/04/08 02:58:41;;;;;;;12.28;6.70;;;;;;;9.60;97.27;100734.23;1744367;82;21051;-57
2023/04/08 03:01:10;;;;;;;13.50;6.97;;;;;;;9.61;97.44;100740.05;1744236;82;21462;-55
2023/04/08 03:03:41;;;;;;;13.45;7.72;;;;;;;9.60;97.54;100739.71;1744349;82;21039;-56
2023/04/08 03:06:10;;;;;;;11.83;6.92;;;;;;;9.61;97.56;100736.46;1744265;82;21050;-55
2023/04/08 03:08:40;;;;;;;13.08;7.22;;;;;;;9.60;97.61;100739.71;1744486;82;21486;-57
2023/04/08 03:11:11;;;;;;;14.18;7.35;;;;;;;9.61;97.73;100737.83;1689881;85;21540;-56
2023/04/08 03:13:40;;;;;;;11.25;7.30;;;;;;;9.60;97.79;100741.59;1690152;85;21078;-56
2023/04/08 03:16:10;;;;;;;14.85;8.03;;;;;;;9.59;97.87;100741.27;1689976;85;21038;-58
2023/04/08 03:18:40;;;;;;;13.10;7.72;;;;;;;9.60;97.92;100742.97;1689992;85;21089;-56
2023/04/08 03:21:09;;;;;;;11.73;7.37;;;;;;;9.59;97.94;100742.63;1689873;85;21007;-57
2023/04/08 03:23:40;;;;;;;12.33;7.50;;;;;;;9.60;97.96;100745.70;1689956;85;21125;-56
2023/04/08 03:26:09;;;;;;;14.05;8.10;;;;;;;9.58;98.03;100751.36;1690063;85;21081;-55
2023/04/08 03:28:40;;;;;;;15.18;7.87;;;;;;;9.56;98.11;100744.37;1690013;85;21459;-55
2023/04/08 03:31:09;;;;;;;12.33;7.65;;;;;;;9.56;98.24;100748.47;1689693;85;21507;-60
2023/04/08 03:33:39;;;;;;;16.25;8.45;;;;;;;9.56;98.41;100748.47;1690895;84;21100;-58
2023/04/08 03:36:08;;;;;;;12.98;7.87;;;;;;;9.55;98.54;100747.62;1716597;83;21067;-57
2023/04/08 03:38:39;;;;;;;13.20;8.05;;;;;;;9.55;98.64;100748.98;1734450;83;21443;-57
2023/04/08 03:41:10;;;;;;;14.90;7.87;;;;;;;9.53;98.67;100749.69;1734052;83;21075;-56
2023/04/08 03:43:41;;;;;;;13.60;8.18;;;;;;;9.50;98.87;100747.31;1734300;81;21451;-57
2023/04/08 03:46:11;;;;;;;16.55;8.18;;;;;;;9.50;99.06;100754.16;1735729;83;21031;-57
2023/04/08 03:48:41;;;;;;;14.73;8.08;;;;;;;9.50;99.29;100759.63;1735947;82;21830;-57
2023/04/08 03:51:10;;;;;;;12.65;7.90;;;;;;;9.46;99.30;100760.50;1735160;82;21043;-58
2023/04/08 03:53:41;;;;;;;16.23;7.90;;;;;;;9.46;99.51;100759.66;1734130;82;21098;-57
2023/04/08 03:56:10;;;;;;;14.75;7.53;;;;;;;9.45;99.66;100757.95;1734214;83;21074;-62
2023/04/08 03:58:39;;;;;;;15.38;7.67;;;;;;;9.45;99.85;100757.44;1733813;83;21047;-57
2023/04/08 04:01:08;;;;;;;14.75;8.28;;;;;;;9.45;99.96;100756.06;1734304;83;21063;-57
2023/04/08 04:03:37;;;;;;;14.63;7.50;;;;;;;9.44;100.00;100762.56;1734156;82;21039;-56
2023/04/08 04:06:08;;;;;;;14.30;7.83;;;;;;;9.43;100.00;100762.23;1734197;83;21083;-56
2023/04/08 04:08:36;;;;;;;13.13;8.10;;;;;;;9.45;100.00;100758.80;1734458;83;21063;-56
2023/04/08 04:11:05;;;;;;;12.00;7.50;;;;;;;9.46;100.00;100754.19;1734407;81;21139;-58
2023/04/08 04:13:34;;;;;;;12.75;7.45;;;;;;;9.45;100.00;100753.33;1734213;81;21070;-57
2023/04/08 04:16:04;;;;;;;14.28;7.45;;;;;;;9.46;100.00;100756.91;1734286;83;21055;-57
2023/04/08 04:18:35;;;;;;;13.95;7.62;;;;;;;9.46;100.00;100759.66;1733318;83;21078;-55
2023/04/08 04:21:07;;;;;;;12.13;7.47;;;;;;;9.45;100.00;100766.16;1734220;83;21091;-56
2023/04/08 04:23:36;;;;;;;13.85;7.83;;;;;;;9.44;100.00;100768.04;1734657;83;21039;-58
2023/04/08 04:26:10;;;;;;;13.85;7.80;;;;;;;9.44;100.00;100765.30;1734084;82;21094;-58
2023/04/08 04:28:39;;;;;;;13.70;7.50;;;;;;;9.46;100.00;100770.59;1734157;83;21475;-58
2023/04/08 04:31:21;;;;;;;15.98;8.45;;;;;;;9.48;100.00;100769.89;1734281;82;21549;-56
2023/04/08 04:33:50;;;;;;;12.78;7.58;;;;;;;9.50;100.00;100773.30;1734538;82;21106;-55
2023/04/08 04:36:19;;;;;;;13.60;7.78;;;;;;;9.51;100.00;100773.12;1741307;82;21447;-57
2023/04/08 04:38:49;;;;;;;11.70;7.65;;;;;;;9.52;100.00;100773.97;1741315;82;21521;-56
2023/04/08 04:41:20;;;;;;;18.82;7.83;;;;;;;9.54;100.00;100771.91;1741489;82;21110;-56
2023/04/08 04:43:49;;;;;;;16.55;8.30;;;;;;;9.57;100.00;100778.38;1741343;81;21050;-57
2023/04/08 04:46:20;;;;;;;15.35;9.03;;;;;;;9.57;100.00;100777.01;1741290;82;21043;-59
2023/04/08 04:48:50;;;;;;;14.15;7.67;;;;;;;9.57;100.00;100786.58;1741467;82;21082;-57
2023/04/08 04:51:19;;;;;;;17.77;8.85;;;;;;;9.58;100.00;100786.92;1741309;82;21055;-56
2023/04/08 04:53:49;;;;;;;12.05;7.25;;;;;;;9.57;100.00;100787.09;1741489;82;21547;-55
2023/04/08 04:56:20;;;;;;;14.15;8.15;;;;;;;9.58;100.00;100786.92;1741330;82;21055;-56
2023/04/08 04:58:51;;;;;;;13.65;7.90;;;;;;;9.59;100.00;100789.98;1741261;82;20999;-57
2023/04/08 05:01:20;;;;;;;13.78;7.37;;;;;;;9.59;100.00;100798.72;1741133;82;21043;-56
2023/04/08 05:03:52;;;;;;;13.03;7.83;;;;;;;9.59;100.00;100798.20;1741663;82;21059;-55
2023/04/08 05:06:23;;;;;;;13.68;7.70;;;;;;;9.57;100.00;100804.37;1741264;82;21030;-57
2023/04/08 05:08:52;;;;;;;13.90;7.67;;;;;;;9.54;100.00;100805.58;1741539;82;21043;-56
2023/04/08 05:11:21;;;;;;;15.90;8.20;;;;;;;9.57;100.00;100804.37;1741416;82;21442;-56
2023/04/08 05:13:51;;;;;;;13.10;7.87;;;;;;;9.57;100.00;100803.00;1741257;82;21111;-57
2023/04/08 05:16:22;;;;;;;14.75;8.38;;;;;;;9.57;100.00;100800.27;1741245;82;21023;-57
2023/04/08 05:18:51;;;;;;;12.73;8.20;;;;;;;9.58;100.00;100804.70;1741513;82;21011;-57
2023/04/08 05:21:22;;;;;;;13.43;7.80;;;;;;;9.61;100.00;100811.18;1741513;82;21072;-57
2023/04/08 05:23:52;;;;;;;16.40;8.20;;;;;;;9.62;100.00;100814.25;1741240;82;21110;-57
2023/04/08 05:26:22;;;;;;;16.42;8.10;;;;;;;9.62;100.00;100810.66;1741109;81;21102;-56
2023/04/08 05:28:53;;;;;;;18.30;8.78;;;;;;;9.64;100.00;100803.98;1689657;85;21026;-57
2023/04/08 05:31:22;;;;;;;17.23;8.80;;;;;;;9.67;100.00;100801.39;1689742;85;21445;-56
2023/04/08 05:33:51;;;;;;;16.02;8.93;;;;;;;9.70;100.00;100805.98;1689203;85;21058;-56
2023/04/08 05:36:20;;;;;;;15.68;8.35;;;;;;;9.74;100.00;100810.06;1684830;84;21150;-56
2023/04/08 05:38:49;;;;;;;16.87;8.58;;;;;;;9.79;100.00;100806.80;1685306;85;21043;-55
2023/04/08 05:41:20;;;;;;;12.78;8.13;;;;;;;9.82;100.00;100811.40;1685060;85;21419;-55
2023/04/08 05:43:49;;;;;;;15.05;7.97;;;;;;;9.90;100.00;100815.10;1685012;85;21002;-57
2023/04/08 05:46:18;;;;;;;14.80;9.30;;;;;;;9.96;100.00;100809.74;1697457;82;21086;-56
2023/04/08 05:48:48;;;;;;;16.48;9.25;;;;;;;10.04;100.00;100806.94;1744327;82;21035;-57
2023/04/08 05:51:18;;;;;;;16.97;9.43;;;;;;;10.12;100.00;100803.28;1744118;82;21038;-57
2023/04/08 05:53:47;;;;;;;16.20;8.78;;;;;;;10.21;100.00;100802.72;1743978;81;21051;-57
2023/04/08 05:56:16;;;;;;;13.48;8.25;;;;;;;10.30;100.00;100795.60;1744055;82;21035;-57
2023/04/08 05:58:46;;;;;;;14.43;8.38;;;;;;;10.41;100.00;100793.81;1744070;82;21038;-57
2023/04/08 06:01:16;;;;;;;13.72;7.75;;;;;;;10.48;100.00;100807.09;1743989;82;21079;-56
2023/04/08 06:03:45;;;;;;;14.25;7.92;;;;;;;10.59;100.00;100809.03;1743987;82;21038;-56
2023/04/08 06:06:14;;;;;;;16.32;8.05;;;;;;;10.67;100.00;100805.69;1744323;82;21039;-57
2023/04/08 06:08:44;;;;;;;14.83;8.78;;;;;;;10.77;100.00;100802.66;1743907;82;21042;-56
2023/04/08 06:11:14;;;;;;;18.25;9.95;;;;;;;10.85;100.00;100808.56;1743798;82;21093;-56
2023/04/08 06:13:43;;;;;;;18.07;9.05;;;;;;;10.91;100.00;100805.92;1744330;81;21062;-56
2023/04/08 06:16:14;;;;;;;17.60;8.83;;;;;;;10.98;100.00;100806.86;1744377;82;21038;-56
2023/04/08 06:18:44;;;;;;;16.20;8.33;;;;;;;11.04;99.21;100803.35;1744175;82;21070;-56
2023/04/08 06:21:13;;;;;;;14.45;7.80;;;;;;;11.11;98.80;100807.58;1744202;82;21046;-56
2023/04/08 06:23:41;;;;;;;17.40;8.70;;;;;;;11.21;98.38;100804.54;1744034;82;21054;-57
2023/04/08 06:26:10;;;;;;;15.18;8.83;;;;;;;11.29;97.74;100808.55;1743863;81;21750;-57
2023/04/08 06:28:39;;;;;;;12.60;7.50;;;;;;;11.38;97.19;100810.98;1744145;82;21062;-56
2023/04/08 06:31:09;;;;;;;13.98;7.53;;;;;;;11.47;96.29;100814.98;1743856;82;21074;-57
2023/04/08 06:33:39;;;;;;;14.10;7.75;;;;;;;11.54;95.74;100822.25;1744142;82;21058;-57
2023/04/08 06:36:08;;;;;;;14.35;7.33;;;;;;;11.60;95.08;100811.86;1746001;81;21047;-55
2023/04/08 06:38:38;;;;;;;14.55;8.10;;;;;;;11.68;93.86;100815.86;1746667;82;21039;-57
2023/04/08 06:41:08;;;;;;;18.52;8.35;;;;;;;11.71;92.80;100815.50;1746799;82;21088;-58
2023/04/08 06:43:38;;;;;;;18.55;9.15;;;;;;;11.77;92.04;100821.25;1746532;81;21482;-57
2023/04/08 06:46:06;;;;;;;21.05;9.85;;;;;;;11.78;91.40;100821.09;1746561;82;21051;-57
2023/04/08 06:48:39;;;;;;;18.80;8.83;;;;;;;11.81;91.07;100821.22;1746561;82;20991;-57
2023/04/08 06:51:08;;;;;;;18.00;9.33;;;;;;;11.82;90.43;100823.77;1746786;82;21035;-56
2023/04/08 06:53:38;;;;;;;17.75;9.50;;;;;;;11.83;90.24;100822.73;1746662;82;21569;-57
2023/04/08 06:56:07;;;;;;;18.35;9.00;;;;;;;11.85;89.77;100829.39;1746683;82;21114;-59
2023/04/08 06:58:37;;;;;;;15.72;9.05;;;;;;;11.86;89.42;100828.34;1746628;82;21043;-57
2023/04/08 07:01:06;;;;;;;18.87;9.30;;;;;;;11.86;89.12;100825.60;1746856;82;21098;-57
2023/04/08 07:03:36;;;;;;;16.27;9.18;;;;;;;11.88;88.89;100833.97;1746753;82;21454;-56
2023/04/08 07:06:05;;;;;;;17.80;9.33;;;;;;;11.89;88.84;100838.42;1746890;82;21492;-55
2023/04/08 07:08:36;;;;;;;20.62;8.68;;;;;;;11.96;89.16;100832.47;1746629;82;21062;-56
2023/04/08 07:11:07;;;;;;;18.27;9.23;;;;;;;12.05;88.93;100837.30;1746635;82;21062;-57
2023/04/08 07:13:37;;;;;;;19.60;8.90;;;;;;;12.13;88.62;100837.17;1746548;82;20999;-58
2023/04/08 07:16:07;;;;;;;18.52;9.13;;;;;;;12.21;88.28;100838.41;1746699;81;21031;-58
2023/04/08 07:18:37;;;;;;;14.00;7.42;;;;;;;12.31;87.76;100843.56;1746608;82;21038;-56
2023/04/08 07:21:07;;;;;;;19.57;7.80;;;;;;;12.40;87.62;100839.66;1746797;82;21055;-56
2023/04/08 07:23:37;;;;;;;17.50;7.87;;;;;;;12.49;87.08;100841.73;1746638;82;21103;-57
2023/04/08 07:26:06;;;;;;;16.50;7.78;;;;;;;12.55;86.52;100839.03;1748639;82;21047;-57
2023/04/08 07:28:38;;;;;;;13.20;7.60;;;;;;;12.58;85.80;100842.76;1748292;82;21518;-57
2023/04/08 07:31:16;;;;;;;20.62;8.13;;;;;;;12.65;85.48;100842.80;1748042;82;21080;-57
2023/04/08 07:33:45;;;;;;;17.52;7.60;;;;;;;12.72;84.75;100844.22;1747827;81;20995;-57
2023/04/08 07:36:17;;;;;;;17.87;8.58;;;;;;;12.83;84.33;100847.27;1749088;82;21558;-57
2023/04/08 07:38:47;;;;;;;19.45;8.15;;;;;;;12.91;83.88;100843.51;1749668;81;21038;-56
2023/04/08 07:41:18;;;;;;;18.05;8.80;;;;;;;13.03;83.34;100839.69;1749613;81;21002;-59
2023/04/08 07:43:48;;;;;;;14.63;8.45;;;;;;;13.11;82.51;100839.52;1749463;82;21508;-58
2023/04/08 07:46:19;;;;;;;15.98;8.25;;;;;;;13.16;81.71;100833.73;1749497;82;21085;-57
2023/04/08 07:48:50;;;;;;;16.35;7.78;;;;;;;13.23;80.94;100842.05;1749631;81;21079;-57
2023/04/08 07:51:20;;;;;;;16.67;6.95;;;;;;;13.33;80.29;100836.49;1749164;82;21054;-59
2023/04/08 07:53:50;;;;;;;16.00;7.08;;;;;;;13.46;80.32;100837.07;1746687;82;21125;-57
2023/04/08 07:56:19;;;;;;;21.37;7.58;;;;;;;13.74;80.19;100833.37;1718421;82;21020;-57
2023/04/08 07:58:49;;;;;;;10.70;5.78;;;;;;;13.96;79.05;100832.16;1719524;83;21038;-58
2023/04/08 08:01:22;;;;;;;12.85;6.30;;;;;;;14.17;77.89;100829.21;1728653;82;21113;-59
2023/04/08 08:03:52;;;;;;;16.37;6.62;;;;;;;14.43;76.83;100828.96;1719833;82;21051;-58
2023/04/08 08:06:24;;;;;;;17.92;6.08;;;;;;;14.75;75.86;100832.75;1657721;86;21193;-62
2023/04/08 08:08:55;;;;;;;16.00;5.97;;;;;;;14.98;74.87;100826.80;1657490;85;21069;-59
2023/04/08 08:11:26;;;;;;;15.85;6.37;;;;;;;15.17;74.25;100832.79;1683807;85;21010;-57
2023/04/08 08:13:57;;;;;;;15.20;6.40;;;;;;;15.37;73.46;100825.81;1685449;84;20994;-58
2023/04/08 08:16:28;;;;;;;15.83;6.05;;;;;;;15.51;71.14;100821.92;1685289;85;21027;-58
2023/04/08 08:18:58;;;;;;;16.05;6.60;;;;;;;15.59;70.31;100827.76;1685212;85;21070;-60
2023/04/08 08:21:28;;;;;;;15.93;6.80;;;;;;;15.69;69.66;100819.87;1685083;85;21104;-59
2023/04/08 08:23:58;;;;;;;13.22;5.67;;;;;;;15.76;69.35;100824.83;1701238;82;21521;-58
2023/04/08 08:26:27;;;;;;;17.65;6.17;;;;;;;15.83;68.76;100826.48;1749535;82;21096;-57
2023/04/08 08:28:57;;;;;;;12.53;5.90;;;;;;;15.94;68.25;100826.31;1685153;84;21074;-58
2023/04/08 08:31:26;;;;;;;17.05;5.95;;;;;;;16.04;67.32;100824.44;1651847;85;21558;-59
2023/04/08 08:33:55;;;;;;;14.78;6.47;;;;;;;16.13;67.22;100821.17;1634711;88;21052;-61
2023/04/08 08:36:28;;;;;;;19.02;8.63;;;;;;;16.17;66.02;100824.34;1654027;86;21015;-56
2023/04/08 08:38:57;;;;;;;14.55;6.80;;;;;;;16.16;66.52;100819.34;1689523;83;21503;-59
2023/04/08 08:41:26;;;;;;;17.30;5.55;;;;;;;16.24;66.92;100824.28;1689694;85;21050;-59
2023/04/08 08:43:56;;;;;;;15.38;4.87;;;;;;;16.34;66.20;100818.59;1689549;85;21062;-59
2023/04/08 08:46:24;;;;;;;14.00;5.25;;;;;;;16.45;65.42;100817.86;1700252;82;21015;-58
2023/04/08 08:48:53;;;;;;;14.07;4.80;;;;;;;16.55;64.14;100815.97;1708275;84;21027;-58
2023/04/08 08:51:23;;;;;;;16.67;5.80;;;;;;;16.57;63.75;100818.50;1683190;83;21099;-60
2023/04/08 08:53:53;;;;;;;16.73;5.00;;;;;;;16.62;62.42;100821.44;1687640;83;22034;-58
2023/04/08 08:56:22;;;;;;;12.50;5.05;;;;;;;16.60;61.93;100818.89;1698046;84;21004;-59
2023/04/08 08:58:51;;;;;;;14.65;4.85;;;;;;;16.51;61.70;100817.49;1737859;81;21007;-59
2023/04/08 09:01:36;;;;;;;16.07;5.50;;;;;;;16.42;61.93;100825.23;1752648;81;21023;-58
2023/04/08 09:04:22;;;;;;;12.78;4.65;;;;;;;16.36;62.90;100828.05;1772371;81;21106;-58
2023/04/08 09:06:52;;;;;;;15.00;5.00;;;;;;;16.33;63.12;100825.73;1772603;81;21091;-58
2023/04/08 09:09:21;;;;;;;10.15;3.98;;;;;;;16.32;62.35;100836.48;1751217;81;21071;-59
2023/04/08 09:11:52;;;;;;;13.03;4.67;;;;;;;16.26;61.84;100820.80;1753331;81;21075;-59
2023/04/08 09:14:23;;;;;;;9.73;3.95;;;;;;;16.22;62.05;100823.66;1684798;84;21031;-59
2023/04/08 09:16:53;;;;;;;20.30;4.72;;;;;;;16.21;61.61;100821.97;1725869;83;21162;-58
2023/04/08 09:19:21;;;;;;;11.22;4.22;;;;;;;16.19;61.81;100822.20;1725928;83;21067;-59
2023/04/08 09:22:10;;;;;;;18.55;6.10;;;;;;;16.18;62.29;100824.11;1725710;83;21106;-59
2023/04/08 09:24:39;;;;;;;11.22;4.45;;;;;;;16.22;61.99;100827.81;1726038;83;21059;-58
2023/04/08 09:27:10;;;;;;;13.43;5.33;;;;;;;16.20;61.63;100825.27;1691541;85;21076;-58
2023/04/08 09:29:40;;;;;;;12.70;4.53;;;;;;;16.18;61.86;100828.27;1651660;85;21042;-59
2023/04/08 09:32:09;;;;;;;14.75;4.37;;;;;;;16.12;61.47;100823.63;1684696;85;21062;-58
2023/04/08 09:34:40;;;;;;;14.53;5.03;;;;;;;16.10;61.61;100823.54;1684702;85;21070;-58
2023/04/08 09:37:10;;;;;;;11.15;4.25;;;;;;;16.07;61.54;100826.22;1688588;85;21030;-59
2023/04/08 09:39:41;;;;;;;11.45;4.65;;;;;;;16.09;61.83;100821.31;1689489;85;21042;-57
2023/04/08 09:42:14;;;;;;;15.53;3.83;;;;;;;16.12;61.29;100818.63;1689390;85;21496;-58
2023/04/08 09:44:43;;;;;;;11.78;4.33;;;;;;;16.15;61.22;100827.33;1695708;84;21126;-58
2023/04/08 09:47:20;;;;;;;17.70;4.30;;;;;;;16.18;61.32;100825.50;1714629;83;21066;-57
2023/04/08 09:49:53;;;;;;;8.48;3.70;;;;;;;16.21;60.51;100817.83;1714371;83;21493;-58
2023/04/08 09:52:32;;;;;;;14.28;5.70;;;;;;;16.22;61.03;100826.43;1714489;83;21090;-59
2023/04/08 09:55:03;;;;;;;12.85;6.25;;;;;;;16.29;61.17;100828.10;1714601;82;21090;-59
2023/04/08 09:57:52;;;;;;;16.73;4.72;;;;;;;16.34;60.78;100830.20;1738312;81;21058;-59
2023/04/08 10:00:25;;;;;;;14.60;4.33;;;;;;;16.37;59.96;100825.06;1738847;81;20987;-58
2023/04/08 10:03:06;;;;;;;10.10;4.05;;;;;;;16.38;59.91;100832.82;1753535;81;21048;-57
2023/04/08 10:05:39;;;;;;;12.47;4.00;;;;;;;16.42;59.64;100828.53;1718687;83;21099;-58
2023/04/08 10:08:09;;;;;;;10.40;3.77;;;;;;;16.42;58.55;100825.23;1718771;83;21707;-58
2023/04/08 10:10:39;;;;;;;17.70;3.70;;;;;;;16.45;57.43;100823.93;1695476;83;21706;-58
2023/04/08 10:13:09;;;;;;;13.35;4.25;;;;;;;16.46;55.93;100827.01;1718864;83;21011;-58
2023/04/08 10:15:42;;;;;;;12.98;3.58;;;;;;;16.45;56.20;100830.84;1718920;83;21483;-58
2023/04/08 10:18:23;;;;;;;7.60;3.35;;;;;;;16.46;55.36;100829.77;1718994;83;21067;-58
2023/04/08 10:20:52;;;;;;;12.15;4.05;;;;;;;16.47;55.38;100830.08;1718796;83;21096;-59
2023/04/08 10:23:28;;;;;;;14.78;3.72;;;;;;;16.44;55.26;100827.77;1736468;81;21059;-59
2023/04/08 10:25:57;;;;;;;9.18;3.65;;;;;;;16.43;54.93;100832.45;1767083;81;21044;-59
2023/04/08 10:28:28;;;;;;;12.73;3.50;;;;;;;16.43;54.63;100831.07;1772330;81;21452;-58
2023/04/08 10:30:58;;;;;;;11.18;3.27;;;;;;;16.45;54.38;100839.14;1772468;81;21400;-58
2023/04/08 10:33:33;;;;;;;11.90;3.35;;;;;;;16.44;53.66;100833.30;1772444;81;21427;-59
2023/04/08 10:36:10;;;;;;;15.55;3.83;;;;;;;16.38;53.72;100833.67;1773284;81;21027;-57
2023/04/08 10:38:46;;;;;;;9.18;3.92;;;;;;;16.36;52.93;100833.58;1777948;81;21047;-58
2023/04/08 10:41:20;;;;;;;16.20;3.75;;;;;;;16.27;53.89;100841.84;1777583;80;21114;-58
2023/04/08 10:43:46;;;;;;;10.68;3.40;;;;;;;16.21;54.73;100839.94;1777323;80;21023;-59
2023/04/08 10:46:16;;;;;;;11.05;4.00;;;;;;;16.15;54.84;100842.53;1748264;81;21063;-59
2023/04/08 10:48:47;;;;;;;9.20;3.27;;;;;;;16.09;55.12;100837.90;1778643;81;21476;-57
2023/04/08 10:51:18;;;;;;;10.00;3.40;;;;;;;16.06;55.58;100838.88;1652057;84;21528;-60
2023/04/08 10:53:47;;;;;;;16.85;7.47;;;;;;;16.05;56.05;100839.95;1777944;80;21023;-58
2023/04/08 10:56:17;;;;;;;16.95;5.83;;;;;;;16.01;56.51;100837.32;1755833;81;21027;-58
2023/04/08 10:58:50;;;;;;;9.00;3.75;;;;;;;16.01;56.95;100835.41;1735744;81;21072;-57
2023/04/08 11:01:20;;;;;;;11.43;4.37;;;;;;;16.05;55.74;100833.88;1752955;81;21102;-58
2023/04/08 11:03:50;;;;;;;11.15;3.83;;;;;;;16.06;56.07;100825.06;1777698;80;21459;-59
2023/04/08 11:06:23;;;;;;;10.35;3.30;;;;;;;16.12;56.01;100826.39;1777792;81;21039;-58
2023/04/08 11:08:53;;;;;;;14.40;3.47;;;;;;;16.23;56.70;100826.73;1778071;80;21086;-58
2023/04/08 11:11:28;;;;;;;12.90;3.77;;;;;;;16.33;56.00;100822.97;1747937;81;21079;-59
2023/04/08 11:13:57;;;;;;;13.08;3.87;;;;;;;16.40;55.58;100812.16;1688979;84;21039;-57
2023/04/08 11:16:26;;;;;;;9.50;3.85;;;;;;;16.47;55.03;100812.10;1711286;84;21070;-59
2023/04/08 11:18:56;;;;;;;12.68;3.87;;;;;;;16.52;55.11;100809.50;1711399;84;21039;-57
2023/04/08 11:21:28;;;;;;;15.10;4.00;;;;;;;16.60;54.90;100814.75;1711441;84;21095;-57
2023/04/08 11:23:56;;;;;;;8.60;3.50;;;;;;;16.65;54.77;100809.91;1711424;84;21067;-56
2023/04/08 11:26:26;;;;;;;12.47;2.92;;;;;;;16.61;54.27;100811.45;1711453;84;21537;-59
2023/04/08 11:28:58;;;;;;;10.38;2.98;;;;;;;16.53;53.89;100807.05;1711134;84;21499;-57
2023/04/08 11:31:27;;;;;;;11.53;2.65;;;;;;;16.46;53.45;100799.34;1711206;84;21086;-58
2023/04/08 11:33:56;;;;;;;9.18;2.60;;;;;;;16.37;52.68;100804.86;1711271;83;21086;-58
2023/04/08 11:36:27;;;;;;;6.08;2.90;;;;;;;16.30;52.53;100801.30;1696073;84;21638;-58